sensor_id;sensor_type;location;lat;lon;timestamp;P1;durP1;ratioP1;P2;durP2;ratioP2
77304;SDS011;66364;52.622;7.746;2023-03-11T00:00:02;4.45;;;4.05;;
77304;SDS011;66364;52.622;7.746;2023-03-11T00:02:03;6.00;;;3.80;;
77304;SDS011;66364;52.622;7.746;2023-03-11T00:04:03;6.37;;;4.20;;
77304;SDS011;66364;52.622;7.746;2023-03-11T00:06:04;5.40;;;4.07;;
77304;SDS011;66364;52.622;7.746;2023-03-11T00:08:06;7.55;;;4.10;;
77304;SDS011;66364;52.622;7.746;2023-03-11T00:10:12;4.47;;;3.95;;
77304;SDS011;66364;52.622;7.746;2023-03-11T00:12:15;5.37;;;4.03;;
77304;SDS011;66364;52.622;7.746;2023-03-11T00:14:16;6.03;;;4.60;;
77304;SDS011;66364;52.622;7.746;2023-03-11T00:16:17;6.67;;;5.17;;
77304;SDS011;66364;52.622;7.746;2023-03-11T00:18:17;4.93;;;4.43;;
77304;SDS011;66364;52.622;7.746;2023-03-11T00:22:23;6.15;;;4.20;;
77304;SDS011;66364;52.622;7.746;2023-03-11T00:24:23;5.53;;;4.77;;
77304;SDS011;66364;52.622;7.746;2023-03-11T00:26:24;6.50;;;4.50;;
77304;SDS011;66364;52.622;7.746;2023-03-11T00:28:25;7.77;;;4.53;;
77304;SDS011;66364;52.622;7.746;2023-03-11T00:30:26;7.60;;;5.13;;
77304;SDS011;66364;52.622;7.746;2023-03-11T00:32:27;7.45;;;4.28;;
77304;SDS011;66364;52.622;7.746;2023-03-11T00:34:27;4.97;;;4.33;;
77304;SDS011;66364;52.622;7.746;2023-03-11T00:36:29;7.13;;;5.07;;
77304;SDS011;66364;52.622;7.746;2023-03-11T00:38:31;5.40;;;4.15;;
77304;SDS011;66364;52.622;7.746;2023-03-11T00:40:33;4.70;;;4.30;;
77304;SDS011;66364;52.622;7.746;2023-03-11T00:42:35;4.50;;;4.10;;
77304;SDS011;66364;52.622;7.746;2023-03-11T00:44:35;5.60;;;4.13;;
77304;SDS011;66364;52.622;7.746;2023-03-11T00:46:36;4.30;;;3.90;;
77304;SDS011;66364;52.622;7.746;2023-03-11T00:48:37;6.20;;;3.62;;
77304;SDS011;66364;52.622;7.746;2023-03-11T00:50:38;5.67;;;3.87;;
77304;SDS011;66364;52.622;7.746;2023-03-11T00:52:40;9.50;;;4.40;;
77304;SDS011;66364;52.622;7.746;2023-03-11T00:54:40;4.27;;;3.27;;
77304;SDS011;66364;52.622;7.746;2023-03-11T00:56:41;4.20;;;3.47;;
77304;SDS011;66364;52.622;7.746;2023-03-11T00:58:42;6.73;;;3.90;;
77304;SDS011;66364;52.622;7.746;2023-03-11T01:00:43;7.50;;;3.72;;
77304;SDS011;66364;52.622;7.746;2023-03-11T01:02:44;6.00;;;4.10;;
77304;SDS011;66364;52.622;7.746;2023-03-11T01:05:06;3.80;;;3.35;;
77304;SDS011;66364;52.622;7.746;2023-03-11T01:07:09;5.03;;;3.90;;
77304;SDS011;66364;52.622;7.746;2023-03-11T01:09:09;4.95;;;3.37;;
77304;SDS011;66364;52.622;7.746;2023-03-11T01:11:10;5.90;;;3.10;;
77304;SDS011;66364;52.622;7.746;2023-03-11T01:13:11;5.67;;;3.30;;
77304;SDS011;66364;52.622;7.746;2023-03-11T01:15:26;8.03;;;3.13;;
77304;SDS011;66364;52.622;7.746;2023-03-11T01:17:28;8.25;;;3.20;;
77304;SDS011;66364;52.622;7.746;2023-03-11T01:19:29;4.20;;;3.80;;
77304;SDS011;66364;52.622;7.746;2023-03-11T01:21:29;6.23;;;2.90;;
77304;SDS011;66364;52.622;7.746;2023-03-11T01:23:30;3.10;;;2.65;;
77304;SDS011;66364;52.622;7.746;2023-03-11T01:25:31;4.27;;;2.83;;
77304;SDS011;66364;52.622;7.746;2023-03-11T01:27:32;7.23;;;3.27;;
77304;SDS011;66364;52.622;7.746;2023-03-11T01:29:32;4.90;;;2.47;;
77304;SDS011;66364;52.622;7.746;2023-03-11T01:31:33;4.03;;;2.67;;
77304;SDS011;66364;52.622;7.746;2023-03-11T01:33:34;9.37;;;2.90;;
77304;SDS011;66364;52.622;7.746;2023-03-11T01:35:34;4.27;;;2.63;;
77304;SDS011;66364;52.622;7.746;2023-03-11T01:37:35;9.50;;;3.43;;
77304;SDS011;66364;52.622;7.746;2023-03-11T01:39:36;8.30;;;2.50;;
77304;SDS011;66364;52.622;7.746;2023-03-11T01:41:36;4.50;;;2.53;;
77304;SDS011;66364;52.622;7.746;2023-03-11T01:48:10;3.83;;;2.37;;
77304;SDS011;66364;52.622;7.746;2023-03-11T01:50:11;5.27;;;2.40;;
77304;SDS011;66364;52.622;7.746;2023-03-11T01:52:12;5.62;;;2.42;;
77304;SDS011;66364;52.622;7.746;2023-03-11T01:54:14;3.98;;;1.95;;
77304;SDS011;66364;52.622;7.746;2023-03-11T01:56:18;4.20;;;2.22;;
77304;SDS011;66364;52.622;7.746;2023-03-11T01:58:27;4.08;;;2.20;;
77304;SDS011;66364;52.622;7.746;2023-03-11T02:00:25;7.12;;;2.50;;
77304;SDS011;66364;52.622;7.746;2023-03-11T02:02:35;3.80;;;2.93;;
77304;SDS011;66364;52.622;7.746;2023-03-11T02:04:58;3.65;;;2.17;;
77304;SDS011;66364;52.622;7.746;2023-03-11T02:07:02;4.25;;;2.80;;
77304;SDS011;66364;52.622;7.746;2023-03-11T02:09:04;5.85;;;3.10;;
77304;SDS011;66364;52.622;7.746;2023-03-11T02:11:05;3.57;;;2.83;;
77304;SDS011;66364;52.622;7.746;2023-03-11T02:13:07;4.40;;;2.45;;
77304;SDS011;66364;52.622;7.746;2023-03-11T02:15:10;3.33;;;2.08;;
77304;SDS011;66364;52.622;7.746;2023-03-11T02:17:12;5.00;;;2.90;;
77304;SDS011;66364;52.622;7.746;2023-03-11T02:19:18;6.65;;;2.83;;
77304;SDS011;66364;52.622;7.746;2023-03-11T02:21:37;7.87;;;3.42;;
77304;SDS011;66364;52.622;7.746;2023-03-11T02:23:48;4.78;;;2.50;;
77304;SDS011;66364;52.622;7.746;2023-03-11T02:28:11;3.72;;;2.33;;
77304;SDS011;66364;52.622;7.746;2023-03-11T02:30:14;8.63;;;2.35;;
77304;SDS011;66364;52.622;7.746;2023-03-11T02:32:16;3.95;;;2.60;;
77304;SDS011;66364;52.622;7.746;2023-03-11T02:34:20;7.20;;;3.02;;
77304;SDS011;66364;52.622;7.746;2023-03-11T02:36:36;6.00;;;2.35;;
77304;SDS011;66364;52.622;7.746;2023-03-11T02:38:41;3.15;;;2.85;;
77304;SDS011;66364;52.622;7.746;2023-03-11T02:41:00;3.83;;;2.37;;
77304;SDS011;66364;52.622;7.746;2023-03-11T02:42:59;4.90;;;3.20;;
77304;SDS011;66364;52.622;7.746;2023-03-11T02:45:12;5.85;;;2.62;;
77304;SDS011;66364;52.622;7.746;2023-03-11T02:49:37;3.02;;;2.72;;
77304;SDS011;66364;52.622;7.746;2023-03-11T02:51:38;3.45;;;3.15;;
77304;SDS011;66364;52.622;7.746;2023-03-11T02:53:40;3.10;;;2.80;;
77304;SDS011;66364;52.622;7.746;2023-03-11T02:55:43;5.28;;;2.40;;
77304;SDS011;66364;52.622;7.746;2023-03-11T02:57:43;6.87;;;3.23;;
77304;SDS011;66364;52.622;7.746;2023-03-11T02:59:44;9.53;;;2.70;;
77304;SDS011;66364;52.622;7.746;2023-03-11T03:01:45;8.70;;;2.93;;
77304;SDS011;66364;52.622;7.746;2023-03-11T03:03:45;6.00;;;2.37;;
77304;SDS011;66364;52.622;7.746;2023-03-11T03:05:46;9.70;;;3.17;;
77304;SDS011;66364;52.622;7.746;2023-03-11T03:07:47;5.80;;;2.80;;
77304;SDS011;66364;52.622;7.746;2023-03-11T03:09:48;4.30;;;2.20;;
77304;SDS011;66364;52.622;7.746;2023-03-11T03:11:49;9.13;;;2.57;;
77304;SDS011;66364;52.622;7.746;2023-03-11T03:13:49;2.23;;;2.00;;
77304;SDS011;66364;52.622;7.746;2023-03-11T03:15:50;4.37;;;2.00;;
77304;SDS011;66364;52.622;7.746;2023-03-11T03:17:51;9.93;;;2.17;;
77304;SDS011;66364;52.622;7.746;2023-03-11T03:19:51;3.40;;;2.13;;
77304;SDS011;66364;52.622;7.746;2023-03-11T03:21:52;7.20;;;3.23;;
77304;SDS011;66364;52.622;7.746;2023-03-11T03:23:53;3.47;;;2.67;;
77304;SDS011;66364;52.622;7.746;2023-03-11T03:25:54;7.67;;;2.53;;
77304;SDS011;66364;52.622;7.746;2023-03-11T03:27:54;2.67;;;2.07;;
77304;SDS011;66364;52.622;7.746;2023-03-11T03:29:58;8.67;;;2.50;;
77304;SDS011;66364;52.622;7.746;2023-03-11T03:31:58;1.92;;;1.72;;
77304;SDS011;66364;52.622;7.746;2023-03-11T03:34:01;5.93;;;2.20;;
77304;SDS011;66364;52.622;7.746;2023-03-11T03:36:04;6.40;;;1.92;;
77304;SDS011;66364;52.622;7.746;2023-03-11T03:38:09;5.05;;;1.65;;
77304;SDS011;66364;52.622;7.746;2023-03-11T03:40:11;7.70;;;2.27;;
77304;SDS011;66364;52.622;7.746;2023-03-11T03:42:13;5.22;;;1.90;;
77304;SDS011;66364;52.622;7.746;2023-03-11T03:44:13;3.30;;;1.67;;
77304;SDS011;66364;52.622;7.746;2023-03-11T03:46:14;7.17;;;2.17;;
77304;SDS011;66364;52.622;7.746;2023-03-11T03:48:15;4.17;;;1.82;;
77304;SDS011;66364;52.622;7.746;2023-03-11T03:50:16;2.17;;;1.53;;
77304;SDS011;66364;52.622;7.746;2023-03-11T03:52:17;6.50;;;1.70;;
77304;SDS011;66364;52.622;7.746;2023-03-11T03:54:18;4.65;;;1.70;;
77304;SDS011;66364;52.622;7.746;2023-03-11T03:56:18;3.63;;;1.80;;
77304;SDS011;66364;52.622;7.746;2023-03-11T03:58:19;3.37;;;2.07;;
77304;SDS011;66364;52.622;7.746;2023-03-11T04:00:25;7.80;;;2.57;;
77304;SDS011;66364;52.622;7.746;2023-03-11T04:02:26;1.85;;;1.75;;
77304;SDS011;66364;52.622;7.746;2023-03-11T04:04:27;2.83;;;1.53;;
77304;SDS011;66364;52.622;7.746;2023-03-11T04:06:28;4.62;;;2.00;;
77304;SDS011;66364;52.622;7.746;2023-03-11T04:08:28;5.13;;;1.70;;
77304;SDS011;66364;52.622;7.746;2023-03-11T04:10:29;6.77;;;1.90;;
77304;SDS011;66364;52.622;7.746;2023-03-11T04:12:30;2.83;;;1.57;;
77304;SDS011;66364;52.622;7.746;2023-03-11T04:14:30;5.63;;;2.30;;
77304;SDS011;66364;52.622;7.746;2023-03-11T04:16:31;6.17;;;3.00;;
77304;SDS011;66364;52.622;7.746;2023-03-11T04:18:32;2.75;;;1.60;;
77304;SDS011;66364;52.622;7.746;2023-03-11T04:23:15;3.45;;;2.25;;
77304;SDS011;66364;52.622;7.746;2023-03-11T04:25:16;9.33;;;2.73;;
77304;SDS011;66364;52.622;7.746;2023-03-11T04:27:17;3.50;;;2.27;;
77304;SDS011;66364;52.622;7.746;2023-03-11T04:29:17;7.30;;;2.00;;
77304;SDS011;66364;52.622;7.746;2023-03-11T04:31:18;4.10;;;2.03;;
77304;SDS011;66364;52.622;7.746;2023-03-11T04:33:22;6.70;;;2.13;;
77304;SDS011;66364;52.622;7.746;2023-03-11T04:35:25;3.20;;;2.08;;
77304;SDS011;66364;52.622;7.746;2023-03-11T04:37:27;2.37;;;1.60;;
77304;SDS011;66364;52.622;7.746;2023-03-11T04:39:28;7.20;;;2.20;;
77304;SDS011;66364;52.622;7.746;2023-03-11T04:41:28;8.07;;;2.53;;
77304;SDS011;66364;52.622;7.746;2023-03-11T04:43:29;5.30;;;1.87;;
77304;SDS011;66364;52.622;7.746;2023-03-11T04:45:30;2.42;;;2.15;;
77304;SDS011;66364;52.622;7.746;2023-03-11T04:47:31;7.17;;;2.47;;
77304;SDS011;66364;52.622;7.746;2023-03-11T04:49:32;2.83;;;1.77;;
77304;SDS011;66364;52.622;7.746;2023-03-11T04:51:32;9.33;;;2.00;;
77304;SDS011;66364;52.622;7.746;2023-03-11T04:53:33;2.70;;;1.60;;
77304;SDS011;66364;52.622;7.746;2023-03-11T04:55:36;4.87;;;1.63;;
77304;SDS011;66364;52.622;7.746;2023-03-11T04:57:36;2.77;;;2.00;;
77304;SDS011;66364;52.622;7.746;2023-03-11T04:59:37;4.00;;;1.73;;
77304;SDS011;66364;52.622;7.746;2023-03-11T05:01:38;3.57;;;1.87;;
77304;SDS011;66364;52.622;7.746;2023-03-11T05:03:38;2.23;;;1.40;;
77304;SDS011;66364;52.622;7.746;2023-03-11T05:05:39;8.40;;;2.20;;
77304;SDS011;66364;52.622;7.746;2023-03-11T05:07:40;5.13;;;1.73;;
77304;SDS011;66364;52.622;7.746;2023-03-11T05:09:46;3.77;;;2.27;;
77304;SDS011;66364;52.622;7.746;2023-03-11T05:11:47;2.77;;;1.32;;
77304;SDS011;66364;52.622;7.746;2023-03-11T05:13:48;5.40;;;1.77;;
77304;SDS011;66364;52.622;7.746;2023-03-11T05:15:48;2.83;;;1.47;;
77304;SDS011;66364;52.622;7.746;2023-03-11T05:17:49;3.53;;;2.10;;
77304;SDS011;66364;52.622;7.746;2023-03-11T05:19:53;1.63;;;1.50;;
77304;SDS011;66364;52.622;7.746;2023-03-11T05:21:53;3.60;;;1.75;;
77304;SDS011;66364;52.622;7.746;2023-03-11T05:23:54;4.03;;;1.80;;
77304;SDS011;66364;52.622;7.746;2023-03-11T05:25:55;6.00;;;2.13;;
77304;SDS011;66364;52.622;7.746;2023-03-11T05:27:55;2.97;;;1.43;;
77304;SDS011;66364;52.622;7.746;2023-03-11T05:29:56;5.15;;;2.08;;
77304;SDS011;66364;52.622;7.746;2023-03-11T05:31:57;7.23;;;1.60;;
77304;SDS011;66364;52.622;7.746;2023-03-11T05:33:58;2.60;;;1.90;;
77304;SDS011;66364;52.622;7.746;2023-03-11T05:36:03;2.20;;;1.47;;
77304;SDS011;66364;52.622;7.746;2023-03-11T05:38:07;4.60;;;1.90;;
77304;SDS011;66364;52.622;7.746;2023-03-11T05:40:10;1.73;;;1.60;;
77304;SDS011;66364;52.622;7.746;2023-03-11T05:42:11;5.30;;;2.22;;
77304;SDS011;66364;52.622;7.746;2023-03-11T05:44:12;3.23;;;1.50;;
77304;SDS011;66364;52.622;7.746;2023-03-11T05:46:13;5.97;;;1.93;;
77304;SDS011;66364;52.622;7.746;2023-03-11T05:48:13;1.97;;;1.30;;
77304;SDS011;66364;52.622;7.746;2023-03-11T05:50:14;2.40;;;1.97;;
77304;SDS011;66364;52.622;7.746;2023-03-11T05:52:15;2.03;;;1.50;;
77304;SDS011;66364;52.622;7.746;2023-03-11T05:54:16;1.70;;;1.45;;
77304;SDS011;66364;52.622;7.746;2023-03-11T05:56:17;8.80;;;2.08;;
77304;SDS011;66364;52.622;7.746;2023-03-11T05:58:20;1.70;;;1.60;;
77304;SDS011;66364;52.622;7.746;2023-03-11T06:00:21;3.47;;;1.83;;
77304;SDS011;66364;52.622;7.746;2023-03-11T06:02:21;4.25;;;2.27;;
77304;SDS011;66364;52.622;7.746;2023-03-11T06:04:22;4.37;;;1.80;;
77304;SDS011;66364;52.622;7.746;2023-03-11T06:06:23;2.05;;;1.60;;
77304;SDS011;66364;52.622;7.746;2023-03-11T06:08:24;2.53;;;2.30;;
77304;SDS011;66364;52.622;7.746;2023-03-11T06:10:24;7.93;;;2.13;;
77304;SDS011;66364;52.622;7.746;2023-03-11T06:12:25;4.57;;;1.77;;
77304;SDS011;66364;52.622;7.746;2023-03-11T06:14:26;2.40;;;1.60;;
77304;SDS011;66364;52.622;7.746;2023-03-11T06:16:26;8.60;;;2.80;;
77304;SDS011;66364;52.622;7.746;2023-03-11T06:18:27;6.67;;;1.87;;
77304;SDS011;66364;52.622;7.746;2023-03-11T06:20:28;5.60;;;1.67;;
77304;SDS011;66364;52.622;7.746;2023-03-11T06:22:29;3.13;;;1.20;;
77304;SDS011;66364;52.622;7.746;2023-03-11T06:24:29;3.00;;;1.67;;
77304;SDS011;66364;52.622;7.746;2023-03-11T06:26:30;3.37;;;1.80;;
77304;SDS011;66364;52.622;7.746;2023-03-11T06:28:31;4.10;;;1.90;;
77304;SDS011;66364;52.622;7.746;2023-03-11T06:30:33;5.40;;;2.30;;
77304;SDS011;66364;52.622;7.746;2023-03-11T06:32:33;3.30;;;1.70;;
77304;SDS011;66364;52.622;7.746;2023-03-11T06:34:34;2.83;;;1.40;;
77304;SDS011;66364;52.622;7.746;2023-03-11T06:36:44;3.77;;;2.10;;
77304;SDS011;66364;52.622;7.746;2023-03-11T06:38:45;7.22;;;2.20;;
77304;SDS011;66364;52.622;7.746;2023-03-11T06:40:46;1.60;;;1.50;;
77304;SDS011;66364;52.622;7.746;2023-03-11T06:42:46;8.43;;;1.77;;
77304;SDS011;66364;52.622;7.746;2023-03-11T06:44:47;3.63;;;1.90;;
77304;SDS011;66364;52.622;7.746;2023-03-11T06:46:48;5.27;;;1.70;;
77304;SDS011;66364;52.622;7.746;2023-03-11T06:48:48;8.40;;;1.50;;
77304;SDS011;66364;52.622;7.746;2023-03-11T06:50:58;2.43;;;1.67;;
77304;SDS011;66364;52.622;7.746;2023-03-11T06:52:55;4.58;;;1.57;;
77304;SDS011;66364;52.622;7.746;2023-03-11T06:54:57;5.53;;;1.60;;
77304;SDS011;66364;52.622;7.746;2023-03-11T06:56:58;6.15;;;2.10;;
77304;SDS011;66364;52.622;7.746;2023-03-11T06:58:59;9.80;;;2.33;;
77304;SDS011;66364;52.622;7.746;2023-03-11T07:01:03;5.73;;;1.83;;
77304;SDS011;66364;52.622;7.746;2023-03-11T07:03:08;1.87;;;1.77;;
77304;SDS011;66364;52.622;7.746;2023-03-11T07:05:11;2.75;;;1.32;;
77304;SDS011;66364;52.622;7.746;2023-03-11T07:07:12;2.67;;;1.65;;
77304;SDS011;66364;52.622;7.746;2023-03-11T07:09:13;3.23;;;1.53;;
77304;SDS011;66364;52.622;7.746;2023-03-11T07:11:21;1.60;;;1.50;;
77304;SDS011;66364;52.622;7.746;2023-03-11T07:13:23;3.70;;;1.75;;
77304;SDS011;66364;52.622;7.746;2023-03-11T07:15:23;11.43;;;2.00;;
77304;SDS011;66364;52.622;7.746;2023-03-11T07:17:24;3.90;;;1.87;;
77304;SDS011;66364;52.622;7.746;2023-03-11T07:19:25;2.83;;;1.80;;
77304;SDS011;66364;52.622;7.746;2023-03-11T07:21:26;2.30;;;1.53;;
77304;SDS011;66364;52.622;7.746;2023-03-11T07:23:28;5.08;;;2.00;;
77304;SDS011;66364;52.622;7.746;2023-03-11T07:25:29;3.00;;;1.77;;
77304;SDS011;66364;52.622;7.746;2023-03-11T07:27:29;2.50;;;1.73;;
77304;SDS011;66364;52.622;7.746;2023-03-11T07:29:30;3.07;;;2.43;;
77304;SDS011;66364;52.622;7.746;2023-03-11T07:31:32;5.70;;;2.20;;
77304;SDS011;66364;52.622;7.746;2023-03-11T07:33:34;3.72;;;1.27;;
77304;SDS011;66364;52.622;7.746;2023-03-11T07:35:34;4.30;;;1.98;;
77304;SDS011;66364;52.622;7.746;2023-03-11T07:37:35;4.10;;;1.80;;
77304;SDS011;66364;52.622;7.746;2023-03-11T07:39:39;9.57;;;1.67;;
77304;SDS011;66364;52.622;7.746;2023-03-11T07:41:39;7.03;;;2.30;;
77304;SDS011;66364;52.622;7.746;2023-03-11T07:43:41;1.47;;;1.37;;
77304;SDS011;66364;52.622;7.746;2023-03-11T07:45:42;4.92;;;2.15;;
77304;SDS011;66364;52.622;7.746;2023-03-11T07:47:43;7.80;;;1.47;;
77304;SDS011;66364;52.622;7.746;2023-03-11T07:49:43;3.77;;;1.50;;
77304;SDS011;66364;52.622;7.746;2023-03-11T07:51:44;3.33;;;1.50;;
77304;SDS011;66364;52.622;7.746;2023-03-11T07:53:45;5.80;;;1.53;;
77304;SDS011;66364;52.622;7.746;2023-03-11T07:55:46;13.38;;;1.80;;
77304;SDS011;66364;52.622;7.746;2023-03-11T07:57:47;3.07;;;1.23;;
77304;SDS011;66364;52.622;7.746;2023-03-11T07:59:48;7.07;;;1.93;;
77304;SDS011;66364;52.622;7.746;2023-03-11T08:01:49;1.70;;;1.50;;
77304;SDS011;66364;52.622;7.746;2023-03-11T08:03:50;1.70;;;1.60;;
77304;SDS011;66364;52.622;7.746;2023-03-11T08:05:52;2.42;;;1.40;;
77304;SDS011;66364;52.622;7.746;2023-03-11T08:07:52;9.00;;;2.57;;
77304;SDS011;66364;52.622;7.746;2023-03-11T08:09:53;3.80;;;1.90;;
77304;SDS011;66364;52.622;7.746;2023-03-11T08:11:54;4.30;;;1.87;;
77304;SDS011;66364;52.622;7.746;2023-03-11T08:13:54;5.03;;;2.13;;
77304;SDS011;66364;52.622;7.746;2023-03-11T08:15:55;8.90;;;2.43;;
77304;SDS011;66364;52.622;7.746;2023-03-11T08:17:56;1.30;;;1.20;;
77304;SDS011;66364;52.622;7.746;2023-03-11T08:19:57;3.70;;;1.45;;
77304;SDS011;66364;52.622;7.746;2023-03-11T08:21:59;8.00;;;1.83;;
77304;SDS011;66364;52.622;7.746;2023-03-11T08:24:01;4.60;;;2.10;;
77304;SDS011;66364;52.622;7.746;2023-03-11T08:26:05;5.90;;;1.90;;
77304;SDS011;66364;52.622;7.746;2023-03-11T08:28:24;2.83;;;1.90;;
77304;SDS011;66364;52.622;7.746;2023-03-11T08:30:25;2.47;;;1.60;;
77304;SDS011;66364;52.622;7.746;2023-03-11T08:32:32;5.10;;;1.60;;
77304;SDS011;66364;52.622;7.746;2023-03-11T08:34:34;1.32;;;1.12;;
77304;SDS011;66364;52.622;7.746;2023-03-11T08:38:56;4.50;;;2.35;;
77304;SDS011;66364;52.622;7.746;2023-03-11T08:40:57;4.15;;;1.70;;
77304;SDS011;66364;52.622;7.746;2023-03-11T08:45:01;3.35;;;1.92;;
77304;SDS011;66364;52.622;7.746;2023-03-11T08:47:02;2.37;;;1.77;;
77304;SDS011;66364;52.622;7.746;2023-03-11T08:49:09;5.90;;;1.70;;
77304;SDS011;66364;52.622;7.746;2023-03-11T08:51:12;2.75;;;2.20;;
77304;SDS011;66364;52.622;7.746;2023-03-11T08:53:13;4.40;;;1.80;;
77304;SDS011;66364;52.622;7.746;2023-03-11T08:55:14;2.40;;;2.03;;
77304;SDS011;66364;52.622;7.746;2023-03-11T08:57:17;7.75;;;1.95;;
77304;SDS011;66364;52.622;7.746;2023-03-11T08:59:18;4.17;;;1.90;;
77304;SDS011;66364;52.622;7.746;2023-03-11T09:01:18;3.97;;;1.60;;
77304;SDS011;66364;52.622;7.746;2023-03-11T09:03:19;4.60;;;1.67;;
77304;SDS011;66364;52.622;7.746;2023-03-11T09:05:20;7.00;;;1.70;;
77304;SDS011;66364;52.622;7.746;2023-03-11T09:07:21;4.93;;;1.57;;
77304;SDS011;66364;52.622;7.746;2023-03-11T09:09:22;3.15;;;1.60;;
77304;SDS011;66364;52.622;7.746;2023-03-11T09:11:22;7.07;;;1.90;;
77304;SDS011;66364;52.622;7.746;2023-03-11T09:13:24;2.58;;;1.75;;
77304;SDS011;66364;52.622;7.746;2023-03-11T09:15:24;1.80;;;1.70;;
77304;SDS011;66364;52.622;7.746;2023-03-11T09:17:25;5.00;;;2.30;;
77304;SDS011;66364;52.622;7.746;2023-03-11T09:19:26;3.40;;;1.50;;
77304;SDS011;66364;52.622;7.746;2023-03-11T09:21:32;1.40;;;1.27;;
77304;SDS011;66364;52.622;7.746;2023-03-11T09:23:34;2.62;;;2.30;;
77304;SDS011;66364;52.622;7.746;2023-03-11T09:25:34;3.27;;;2.07;;
77304;SDS011;66364;52.622;7.746;2023-03-11T09:27:35;3.90;;;1.90;;
77304;SDS011;66364;52.622;7.746;2023-03-11T09:29:36;1.93;;;1.60;;
77304;SDS011;66364;52.622;7.746;2023-03-11T09:31:37;3.03;;;1.90;;
77304;SDS011;66364;52.622;7.746;2023-03-11T09:33:38;2.52;;;1.52;;
77304;SDS011;66364;52.622;7.746;2023-03-11T09:35:40;4.78;;;2.08;;
77304;SDS011;66364;52.622;7.746;2023-03-11T09:37:40;2.80;;;1.90;;
77304;SDS011;66364;52.622;7.746;2023-03-11T09:39:47;2.20;;;1.30;;
77304;SDS011;66364;52.622;7.746;2023-03-11T09:41:58;2.10;;;1.90;;
77304;SDS011;66364;52.622;7.746;2023-03-11T09:44:18;1.70;;;1.60;;
77304;SDS011;66364;52.622;7.746;2023-03-11T09:51:06;3.00;;;1.55;;
77304;SDS011;66364;52.622;7.746;2023-03-11T09:55:57;4.00;;;1.47;;
77304;SDS011;66364;52.622;7.746;2023-03-11T09:58:00;3.33;;;1.47;;
77304;SDS011;66364;52.622;7.746;2023-03-11T10:00:04;3.12;;;2.22;;
77304;SDS011;66364;52.622;7.746;2023-03-11T10:02:09;6.20;;;1.75;;
77304;SDS011;66364;52.622;7.746;2023-03-11T10:04:15;4.60;;;3.20;;
77304;SDS011;66364;52.622;7.746;2023-03-11T10:06:24;3.67;;;1.37;;
77304;SDS011;66364;52.622;7.746;2023-03-11T10:08:37;3.35;;;2.15;;
77304;SDS011;66364;52.622;7.746;2023-03-11T10:10:56;1.50;;;1.10;;
77304;SDS011;66364;52.622;7.746;2023-03-11T10:13:00;5.35;;;1.85;;
77304;SDS011;66364;52.622;7.746;2023-03-11T10:15:23;2.77;;;1.27;;
77304;SDS011;66364;52.622;7.746;2023-03-11T10:26:37;3.27;;;1.65;;
77304;SDS011;66364;52.622;7.746;2023-03-11T10:28:53;3.80;;;1.90;;
77304;SDS011;66364;52.622;7.746;2023-03-11T10:33:25;4.30;;;1.67;;
77304;SDS011;66364;52.622;7.746;2023-03-11T10:35:31;3.58;;;1.20;;
77304;SDS011;66364;52.622;7.746;2023-03-11T10:37:39;2.35;;;1.10;;
77304;SDS011;66364;52.622;7.746;2023-03-11T10:39:42;2.50;;;1.30;;
77304;SDS011;66364;52.622;7.746;2023-03-11T10:44:28;4.40;;;1.82;;
77304;SDS011;66364;52.622;7.746;2023-03-11T10:46:46;3.72;;;2.67;;
77304;SDS011;66364;52.622;7.746;2023-03-11T10:48:47;2.67;;;1.73;;
77304;SDS011;66364;52.622;7.746;2023-03-11T10:51:00;3.93;;;1.40;;
77304;SDS011;66364;52.622;7.746;2023-03-11T10:53:05;5.17;;;1.67;;
77304;SDS011;66364;52.622;7.746;2023-03-11T10:55:12;2.50;;;1.50;;
77304;SDS011;66364;52.622;7.746;2023-03-11T10:57:25;2.67;;;1.65;;
77304;SDS011;66364;52.622;7.746;2023-03-11T10:59:46;2.85;;;1.27;;
77304;SDS011;66364;52.622;7.746;2023-03-11T11:01:52;2.50;;;1.50;;
77304;SDS011;66364;52.622;7.746;2023-03-11T11:03:56;6.50;;;1.62;;
77304;SDS011;66364;52.622;7.746;2023-03-11T11:06:03;3.67;;;1.55;;
77304;SDS011;66364;52.622;7.746;2023-03-11T11:08:12;3.45;;;1.42;;
77304;SDS011;66364;52.622;7.746;2023-03-11T11:12:19;2.22;;;1.52;;
77304;SDS011;66364;52.622;7.746;2023-03-11T11:14:40;5.08;;;2.33;;
77304;SDS011;66364;52.622;7.746;2023-03-11T11:16:42;4.40;;;2.05;;
77304;SDS011;66364;52.622;7.746;2023-03-11T11:23:43;4.58;;;1.42;;
77304;SDS011;66364;52.622;7.746;2023-03-11T11:27:59;4.72;;;1.42;;
77304;SDS011;66364;52.622;7.746;2023-03-11T11:30:06;3.20;;;2.05;;
77304;SDS011;66364;52.622;7.746;2023-03-11T11:36:34;4.12;;;2.52;;
77304;SDS011;66364;52.622;7.746;2023-03-11T11:38:36;5.10;;;1.60;;
77304;SDS011;66364;52.622;7.746;2023-03-11T11:40:37;3.97;;;1.60;;
77304;SDS011;66364;52.622;7.746;2023-03-11T11:42:44;3.30;;;1.87;;
77304;SDS011;66364;52.622;7.746;2023-03-11T11:44:55;4.03;;;2.30;;
77304;SDS011;66364;52.622;7.746;2023-03-11T11:47:06;6.25;;;1.47;;
77304;SDS011;66364;52.622;7.746;2023-03-11T11:49:23;5.17;;;1.60;;
77304;SDS011;66364;52.622;7.746;2023-03-11T11:54:19;3.17;;;1.52;;
77304;SDS011;66364;52.622;7.746;2023-03-11T11:56:24;2.37;;;2.17;;
77304;SDS011;66364;52.622;7.746;2023-03-11T11:58:26;2.62;;;2.00;;
77304;SDS011;66364;52.622;7.746;2023-03-11T12:00:33;2.62;;;1.65;;
77304;SDS011;66364;52.622;7.746;2023-03-11T12:02:47;3.65;;;1.42;;
77304;SDS011;66364;52.622;7.746;2023-03-11T12:09:51;3.77;;;1.57;;
77304;SDS011;66364;52.622;7.746;2023-03-11T12:14:53;3.37;;;1.82;;
77304;SDS011;66364;52.622;7.746;2023-03-11T12:17:02;3.67;;;2.90;;
77304;SDS011;66364;52.622;7.746;2023-03-11T12:21:28;8.00;;;1.80;;
77304;SDS011;66364;52.622;7.746;2023-03-11T12:24:07;5.30;;;1.42;;
77304;SDS011;66364;52.622;7.746;2023-03-11T12:26:22;3.87;;;2.58;;
77304;SDS011;66364;52.622;7.746;2023-03-11T12:30:46;2.22;;;1.55;;
77304;SDS011;66364;52.622;7.746;2023-03-11T12:32:50;2.75;;;1.35;;
77304;SDS011;66364;52.622;7.746;2023-03-11T12:34:55;4.15;;;1.67;;
77304;SDS011;66364;52.622;7.746;2023-03-11T12:37:01;1.45;;;1.30;;
77304;SDS011;66364;52.622;7.746;2023-03-11T12:39:04;3.70;;;1.22;;
77304;SDS011;66364;52.622;7.746;2023-03-11T12:45:47;3.33;;;1.55;;
77304;SDS011;66364;52.622;7.746;2023-03-11T12:48:09;3.02;;;1.50;;
77304;SDS011;66364;52.622;7.746;2023-03-11T12:49:55;3.52;;;1.55;;
77304;SDS011;66364;52.622;7.746;2023-03-11T12:52:05;4.78;;;1.27;;
77304;SDS011;66364;52.622;7.746;2023-03-11T12:54:21;5.58;;;1.30;;
77304;SDS011;66364;52.622;7.746;2023-03-11T12:56:41;6.03;;;1.57;;
77304;SDS011;66364;52.622;7.746;2023-03-11T13:01:23;2.67;;;1.32;;
77304;SDS011;66364;52.622;7.746;2023-03-11T13:09:12;5.25;;;1.02;;
77304;SDS011;66364;52.622;7.746;2023-03-11T13:11:41;3.83;;;1.55;;
77304;SDS011;66364;52.622;7.746;2023-03-11T13:13:46;3.05;;;1.55;;
77304;SDS011;66364;52.622;7.746;2023-03-11T13:15:47;4.90;;;1.50;;
77304;SDS011;66364;52.622;7.746;2023-03-11T13:17:59;6.08;;;1.62;;
77304;SDS011;66364;52.622;7.746;2023-03-11T13:19:59;5.67;;;1.80;;
77304;SDS011;66364;52.622;7.746;2023-03-11T13:22:00;1.93;;;1.57;;
77304;SDS011;66364;52.622;7.746;2023-03-11T13:26:42;2.87;;;1.00;;
77304;SDS011;66364;52.622;7.746;2023-03-11T13:28:55;1.80;;;1.30;;
77304;SDS011;66364;52.622;7.746;2023-03-11T13:33:55;5.12;;;1.67;;
77304;SDS011;66364;52.622;7.746;2023-03-11T13:40:41;2.47;;;1.47;;
77304;SDS011;66364;52.622;7.746;2023-03-11T13:42:44;5.47;;;1.50;;
77304;SDS011;66364;52.622;7.746;2023-03-11T13:44:47;1.00;;;0.80;;
77304;SDS011;66364;52.622;7.746;2023-03-11T13:46:50;3.85;;;1.37;;
77304;SDS011;66364;52.622;7.746;2023-03-11T13:48:55;1.47;;;1.37;;
77304;SDS011;66364;52.622;7.746;2023-03-11T13:51:19;4.30;;;1.10;;
77304;SDS011;66364;52.622;7.746;2023-03-11T13:53:33;3.95;;;1.32;;
77304;SDS011;66364;52.622;7.746;2023-03-11T13:55:45;5.70;;;1.60;;